sensor_id;sensor_type;location;lat;lon;timestamp;temperature;humidity
51739;DHT22;37815;52.692;6.226;2023-02-03T00:00:56;9.00;99.90
51739;DHT22;37815;52.692;6.226;2023-02-03T00:05:57;9.00;99.90
51739;DHT22;37815;52.692;6.226;2023-02-03T00:10:59;9.00;99.90
51739;DHT22;37815;52.692;6.226;2023-02-03T00:16:00;9.00;99.90
51739;DHT22;37815;52.692;6.226;2023-02-03T00:21:01;9.00;99.90
51739;DHT22;37815;52.692;6.226;2023-02-03T00:26:15;9.00;99.90
51739;DHT22;37815;52.692;6.226;2023-02-03T00:31:19;9.00;99.90
51739;DHT22;37815;52.692;6.226;2023-02-03T00:36:19;9.00;99.90
51739;DHT22;37815;52.692;6.226;2023-02-03T00:41:20;9.00;99.90
51739;DHT22;37815;52.692;6.226;2023-02-03T00:46:21;9.00;99.90
51739;DHT22;37815;52.692;6.226;2023-02-03T00:51:22;9.00;99.90
51739;DHT22;37815;52.692;6.226;2023-02-03T00:56:22;9.00;99.90
51739;DHT22;37815;52.692;6.226;2023-02-03T01:01:23;9.00;99.90
51739;DHT22;37815;52.692;6.226;2023-02-03T01:06:23;9.00;99.90
51739;DHT22;37815;52.692;6.226;2023-02-03T01:11:26;9.00;99.90
51739;DHT22;37815;52.692;6.226;2023-02-03T01:16:27;9.00;99.90
51739;DHT22;37815;52.692;6.226;2023-02-03T01:21:29;9.00;99.90
51739;DHT22;37815;52.692;6.226;2023-02-03T01:26:29;9.00;99.90
51739;DHT22;37815;52.692;6.226;2023-02-03T01:31:35;9.00;99.90
51739;DHT22;37815;52.692;6.226;2023-02-03T01:36:36;9.00;99.90
51739;DHT22;37815;52.692;6.226;2023-02-03T01:41:38;9.00;99.90
51739;DHT22;37815;52.692;6.226;2023-02-03T01:46:47;9.00;99.90
51739;DHT22;37815;52.692;6.226;2023-02-03T01:51:49;9.00;99.90
51739;DHT22;37815;52.692;6.226;2023-02-03T01:56:54;9.00;99.90
51739;DHT22;37815;52.692;6.226;2023-02-03T02:01:56;9.00;99.90
51739;DHT22;37815;52.692;6.226;2023-02-03T02:06:58;9.00;99.90
51739;DHT22;37815;52.692;6.226;2023-02-03T02:11:58;9.00;99.90
51739;DHT22;37815;52.692;6.226;2023-02-03T02:17:29;9.00;99.90
51739;DHT22;37815;52.692;6.226;2023-02-03T02:22:59;9.00;99.90
51739;DHT22;37815;52.692;6.226;2023-02-03T02:34:14;9.00;99.90
51739;DHT22;37815;52.692;6.226;2023-02-03T02:39:22;9.00;99.90
51739;DHT22;37815;52.692;6.226;2023-02-03T02:44:33;9.00;99.90
51739;DHT22;37815;52.692;6.226;2023-02-03T02:49:45;9.00;99.90
51739;DHT22;37815;52.692;6.226;2023-02-03T02:54:52;9.00;99.90
51739;DHT22;37815;52.692;6.226;2023-02-03T02:59:53;9.00;99.90
51739;DHT22;37815;52.692;6.226;2023-02-03T03:04:54;9.00;99.90
51739;DHT22;37815;52.692;6.226;2023-02-03T03:09:59;9.00;99.90
51739;DHT22;37815;52.692;6.226;2023-02-03T03:15:04;9.10;99.90
51739;DHT22;37815;52.692;6.226;2023-02-03T03:20:10;9.00;99.90
51739;DHT22;37815;52.692;6.226;2023-02-03T03:25:16;9.00;99.90
51739;DHT22;37815;52.692;6.226;2023-02-03T03:30:24;9.10;99.90
51739;DHT22;37815;52.692;6.226;2023-02-03T03:35:31;9.00;99.90
51739;DHT22;37815;52.692;6.226;2023-02-03T03:40:41;9.00;99.90
51739;DHT22;37815;52.692;6.226;2023-02-03T03:46:03;9.00;99.90
51739;DHT22;37815;52.692;6.226;2023-02-03T03:51:11;9.10;99.90
51739;DHT22;37815;52.692;6.226;2023-02-03T03:56:20;9.00;99.90
51739;DHT22;37815;52.692;6.226;2023-02-03T04:01:22;9.10;99.90
51739;DHT22;37815;52.692;6.226;2023-02-03T04:06:23;9.10;99.90
51739;DHT22;37815;52.692;6.226;2023-02-03T04:11:24;9.10;99.90
51739;DHT22;37815;52.692;6.226;2023-02-03T04:16:43;9.10;99.90
51739;DHT22;37815;52.692;6.226;2023-02-03T04:21:44;9.10;99.90
51739;DHT22;37815;52.692;6.226;2023-02-03T04:26:44;9.10;99.90
51739;DHT22;37815;52.692;6.226;2023-02-03T04:31:45;9.10;99.90
51739;DHT22;37815;52.692;6.226;2023-02-03T04:36:46;9.10;99.90
51739;DHT22;37815;52.692;6.226;2023-02-03T04:41:46;9.10;99.90
51739;DHT22;37815;52.692;6.226;2023-02-03T04:46:47;9.10;99.90
51739;DHT22;37815;52.692;6.226;2023-02-03T04:51:48;9.10;99.90
51739;DHT22;37815;52.692;6.226;2023-02-03T04:56:49;9.10;99.90
51739;DHT22;37815;52.692;6.226;2023-02-03T05:01:49;9.10;99.90
51739;DHT22;37815;52.692;6.226;2023-02-03T05:06:50;9.10;99.90
51739;DHT22;37815;52.692;6.226;2023-02-03T05:11:51;9.10;99.90
51739;DHT22;37815;52.692;6.226;2023-02-03T05:16:52;9.10;99.90
51739;DHT22;37815;52.692;6.226;2023-02-03T05:21:52;9.10;99.90
51739;DHT22;37815;52.692;6.226;2023-02-03T05:26:53;9.10;99.90
51739;DHT22;37815;52.692;6.226;2023-02-03T05:31:53;9.10;99.90
51739;DHT22;37815;52.692;6.226;2023-02-03T05:36:54;9.10;99.90
51739;DHT22;37815;52.692;6.226;2023-02-03T05:41:55;9.10;99.90
51739;DHT22;37815;52.692;6.226;2023-02-03T05:46:58;9.10;99.90
51739;DHT22;37815;52.692;6.226;2023-02-03T05:51:58;9.10;99.90
51739;DHT22;37815;52.692;6.226;2023-02-03T05:56:59;9.10;99.90
51739;DHT22;37815;52.692;6.226;2023-02-03T06:02:00;9.10;99.90
51739;DHT22;37815;52.692;6.226;2023-02-03T06:07:00;9.10;99.90
51739;DHT22;37815;52.692;6.226;2023-02-03T06:12:01;9.10;99.90
51739;DHT22;37815;52.692;6.226;2023-02-03T06:17:01;9.10;99.90
51739;DHT22;37815;52.692;6.226;2023-02-03T06:22:02;9.10;99.90
51739;DHT22;37815;52.692;6.226;2023-02-03T06:27:02;9.10;99.90
51739;DHT22;37815;52.692;6.226;2023-02-03T06:32:03;9.10;99.90
51739;DHT22;37815;52.692;6.226;2023-02-03T06:37:04;9.20;99.90
51739;DHT22;37815;52.692;6.226;2023-02-03T06:42:04;9.20;99.90
51739;DHT22;37815;52.692;6.226;2023-02-03T06:47:05;9.20;99.90
51739;DHT22;37815;52.692;6.226;2023-02-03T06:52:06;9.20;99.90
51739;DHT22;37815;52.692;6.226;2023-02-03T06:57:07;9.20;99.90
51739;DHT22;37815;52.692;6.226;2023-02-03T07:02:09;9.20;99.90
51739;DHT22;37815;52.692;6.226;2023-02-03T07:07:11;9.20;99.90
51739;DHT22;37815;52.692;6.226;2023-02-03T07:12:12;8.60;99.90
51739;DHT22;37815;52.692;6.226;2023-02-03T07:17:12;9.20;99.90
51739;DHT22;37815;52.692;6.226;2023-02-03T07:22:13;9.20;99.90
51739;DHT22;37815;52.692;6.226;2023-02-03T07:27:13;9.20;99.90
51739;DHT22;37815;52.692;6.226;2023-02-03T07:32:14;9.40;99.90
51739;DHT22;37815;52.692;6.226;2023-02-03T07:37:15;9.50;99.90
51739;DHT22;37815;52.692;6.226;2023-02-03T07:42:15;9.50;99.90
51739;DHT22;37815;52.692;6.226;2023-02-03T07:47:16;9.50;99.90
51739;DHT22;37815;52.692;6.226;2023-02-03T07:52:16;9.40;99.90
51739;DHT22;37815;52.692;6.226;2023-02-03T07:57:17;9.40;99.90
51739;DHT22;37815;52.692;6.226;2023-02-03T08:02:18;9.40;99.90
51739;DHT22;37815;52.692;6.226;2023-02-03T08:07:18;9.40;99.90
51739;DHT22;37815;52.692;6.226;2023-02-03T08:12:19;9.40;99.90
51739;DHT22;37815;52.692;6.226;2023-02-03T08:17:20;9.40;99.90
51739;DHT22;37815;52.692;6.226;2023-02-03T08:22:21;9.40;99.90
51739;DHT22;37815;52.692;6.226;2023-02-03T08:27:22;9.40;99.90
51739;DHT22;37815;52.692;6.226;2023-02-03T08:32:22;9.40;99.90
51739;DHT22;37815;52.692;6.226;2023-02-03T08:37:24;9.40;99.90
51739;DHT22;37815;52.692;6.226;2023-02-03T08:42:24;9.40;99.90
51739;DHT22;37815;52.692;6.226;2023-02-03T08:47:26;9.40;99.90
51739;DHT22;37815;52.692;6.226;2023-02-03T08:52:26;9.40;99.90
51739;DHT22;37815;52.692;6.226;2023-02-03T08:57:31;9.40;99.90
51739;DHT22;37815;52.692;6.226;2023-02-03T09:02:32;9.40;99.90
51739;DHT22;37815;52.692;6.226;2023-02-03T09:07:33;9.40;99.90
51739;DHT22;37815;52.692;6.226;2023-02-03T09:12:34;9.40;99.90
51739;DHT22;37815;52.692;6.226;2023-02-03T09:17:34;9.40;99.90
51739;DHT22;37815;52.692;6.226;2023-02-03T09:22:35;9.40;99.90
51739;DHT22;37815;52.692;6.226;2023-02-03T09:27:35;9.40;99.90
51739;DHT22;37815;52.692;6.226;2023-02-03T09:32:36;9.40;99.90
51739;DHT22;37815;52.692;6.226;2023-02-03T09:37:36;9.40;99.90
51739;DHT22;37815;52.692;6.226;2023-02-03T09:48:14;9.50;99.90
51739;DHT22;37815;52.692;6.226;2023-02-03T09:53:31;9.40;99.90
51739;DHT22;37815;52.692;6.226;2023-02-03T09:58:33;9.50;99.90
51739;DHT22;37815;52.692;6.226;2023-02-03T10:09:37;9.50;99.90
51739;DHT22;37815;52.692;6.226;2023-02-03T10:20:09;9.50;99.90
51739;DHT22;37815;52.692;6.226;2023-02-03T10:35:14;9.50;99.90
51739;DHT22;37815;52.692;6.226;2023-02-03T10:40:15;9.50;99.90
51739;DHT22;37815;52.692;6.226;2023-02-03T10:45:17;9.50;99.90
51739;DHT22;37815;52.692;6.226;2023-02-03T10:50:24;9.60;99.90
51739;DHT22;37815;52.692;6.226;2023-02-03T10:55:30;9.60;99.90
51739;DHT22;37815;52.692;6.226;2023-02-03T11:00:33;9.60;99.90
51739;DHT22;37815;52.692;6.226;2023-02-03T11:05:33;9.60;99.90
51739;DHT22;37815;52.692;6.226;2023-02-03T11:10:37;9.60;99.90
51739;DHT22;37815;52.692;6.226;2023-02-03T11:20:58;9.70;99.90
51739;DHT22;37815;52.692;6.226;2023-02-03T11:26:11;9.70;99.90
51739;DHT22;37815;52.692;6.226;2023-02-03T11:31:22;9.80;99.90
51739;DHT22;37815;52.692;6.226;2023-02-03T11:36:25;9.80;99.90
51739;DHT22;37815;52.692;6.226;2023-02-03T11:41:38;9.80;99.90
51739;DHT22;37815;52.692;6.226;2023-02-03T11:46:39;9.90;99.90
51739;DHT22;37815;52.692;6.226;2023-02-03T12:08:19;9.90;99.90
51739;DHT22;37815;52.692;6.226;2023-02-03T12:24:06;9.90;99.90
51739;DHT22;37815;52.692;6.226;2023-02-03T12:29:13;9.90;99.90
51739;DHT22;37815;52.692;6.226;2023-02-03T12:34:21;9.90;99.90
51739;DHT22;37815;52.692;6.226;2023-02-03T12:44:43;10.00;99.90
51739;DHT22;37815;52.692;6.226;2023-02-03T12:55:07;10.10;99.90
51739;DHT22;37815;52.692;6.226;2023-02-03T13:05:22;10.00;99.90
51739;DHT22;37815;52.692;6.226;2023-02-03T13:10:44;10.10;99.90
51739;DHT22;37815;52.692;6.226;2023-02-03T13:15:49;10.10;99.90
51739;DHT22;37815;52.692;6.226;2023-02-03T13:20:52;10.10;99.90
51739;DHT22;37815;52.692;6.226;2023-02-03T13:26:02;10.10;99.90
51739;DHT22;37815;52.692;6.226;2023-02-03T13:31:35;10.10;99.90
51739;DHT22;37815;52.692;6.226;2023-02-03T13:47:18;10.10;99.90
51739;DHT22;37815;52.692;6.226;2023-02-03T13:52:27;10.10;99.90
51739;DHT22;37815;52.692;6.226;2023-02-03T13:57:37;10.10;99.90
51739;DHT22;37815;52.692;6.226;2023-02-03T14:02:41;10.10;99.90
51739;DHT22;37815;52.692;6.226;2023-02-03T14:07:42;10.10;99.90
51739;DHT22;37815;52.692;6.226;2023-02-03T14:22:57;10.00;99.90
51739;DHT22;37815;52.692;6.226;2023-02-03T14:28:04;10.00;99.90
51739;DHT22;37815;52.692;6.226;2023-02-03T14:33:05;10.00;99.90
51739;DHT22;37815;52.692;6.226;2023-02-03T14:38:09;9.90;99.90
51739;DHT22;37815;52.692;6.226;2023-02-03T14:48:40;9.60;99.90
51739;DHT22;37815;52.692;6.226;2023-02-03T14:59:01;9.50;99.90
51739;DHT22;37815;52.692;6.226;2023-02-03T15:09:38;9.30;99.90
51739;DHT22;37815;52.692;6.226;2023-02-03T15:14:39;9.20;99.90
51739;DHT22;37815;52.692;6.226;2023-02-03T15:19:41;9.20;99.90
51739;DHT22;37815;52.692;6.226;2023-02-03T15:24:42;9.20;99.90
51739;DHT22;37815;52.692;6.226;2023-02-03T15:29:42;9.10;99.90
51739;DHT22;37815;52.692;6.226;2023-02-03T15:34:43;9.10;99.90
51739;DHT22;37815;52.692;6.226;2023-02-03T15:44:56;9.00;99.90
51739;DHT22;37815;52.692;6.226;2023-02-03T16:00:33;8.90;99.90
51739;DHT22;37815;52.692;6.226;2023-02-03T16:05:35;9.00;99.90
51739;DHT22;37815;52.692;6.226;2023-02-03T16:10:38;9.10;99.90
51739;DHT22;37815;52.692;6.226;2023-02-03T16:15:39;9.20;99.90
51739;DHT22;37815;52.692;6.226;2023-02-03T16:20:48;9.30;99.90
51739;DHT22;37815;52.692;6.226;2023-02-03T16:31:19;9.40;99.90
51739;DHT22;37815;52.692;6.226;2023-02-03T16:36:40;9.40;99.90
51739;DHT22;37815;52.692;6.226;2023-02-03T16:42:00;9.40;99.90
51739;DHT22;37815;52.692;6.226;2023-02-03T16:47:28;9.40;99.90
51739;DHT22;37815;52.692;6.226;2023-02-03T16:52:48;9.50;99.90
51739;DHT22;37815;52.692;6.226;2023-02-03T16:57:48;9.50;99.90
51739;DHT22;37815;52.692;6.226;2023-02-03T17:02:50;9.50;99.90
51739;DHT22;37815;52.692;6.226;2023-02-03T17:07:51;9.50;99.90
51739;DHT22;37815;52.692;6.226;2023-02-03T17:12:52;9.50;99.90
51739;DHT22;37815;52.692;6.226;2023-02-03T17:17:54;9.50;99.90
51739;DHT22;37815;52.692;6.226;2023-02-03T17:22:54;9.70;99.90
51739;DHT22;37815;52.692;6.226;2023-02-03T17:27:55;9.70;99.90
51739;DHT22;37815;52.692;6.226;2023-02-03T17:32:56;9.70;99.90
51739;DHT22;37815;52.692;6.226;2023-02-03T17:37:56;9.60;99.90
51739;DHT22;37815;52.692;6.226;2023-02-03T17:42:57;9.70;99.90
51739;DHT22;37815;52.692;6.226;2023-02-03T17:47:57;9.60;99.90
51739;DHT22;37815;52.692;6.226;2023-02-03T17:53:00;9.60;99.90
51739;DHT22;37815;52.692;6.226;2023-02-03T17:58:01;9.60;99.90
51739;DHT22;37815;52.692;6.226;2023-02-03T18:03:01;9.60;99.90
51739;DHT22;37815;52.692;6.226;2023-02-03T18:08:02;9.60;99.90
51739;DHT22;37815;52.692;6.226;2023-02-03T18:13:05;9.60;99.90
51739;DHT22;37815;52.692;6.226;2023-02-03T18:18:05;9.60;99.90
51739;DHT22;37815;52.692;6.226;2023-02-03T18:23:07;9.50;99.90
51739;DHT22;37815;52.692;6.226;2023-02-03T18:28:07;9.50;99.90
51739;DHT22;37815;52.692;6.226;2023-02-03T18:33:08;9.50;99.90
51739;DHT22;37815;52.692;6.226;2023-02-03T18:38:09;9.50;99.90
51739;DHT22;37815;52.692;6.226;2023-02-03T18:43:10;9.50;99.90
51739;DHT22;37815;52.692;6.226;2023-02-03T18:48:10;9.40;99.90
51739;DHT22;37815;52.692;6.226;2023-02-03T18:53:11;9.40;99.90
51739;DHT22;37815;52.692;6.226;2023-02-03T18:58:12;9.40;99.90
51739;DHT22;37815;52.692;6.226;2023-02-03T19:03:12;9.40;99.90
51739;DHT22;37815;52.692;6.226;2023-02-03T19:08:13;9.40;99.90
51739;DHT22;37815;52.692;6.226;2023-02-03T19:13:13;9.40;99.90
51739;DHT22;37815;52.692;6.226;2023-02-03T19:18:15;9.40;99.90
51739;DHT22;37815;52.692;6.226;2023-02-03T19:23:15;9.40;99.90
51739;DHT22;37815;52.692;6.226;2023-02-03T19:28:16;9.40;99.90
51739;DHT22;37815;52.692;6.226;2023-02-03T19:33:16;9.40;99.90
51739;DHT22;37815;52.692;6.226;2023-02-03T19:38:17;9.40;99.90
51739;DHT22;37815;52.692;6.226;2023-02-03T19:43:18;9.40;99.90
51739;DHT22;37815;52.692;6.226;2023-02-03T19:48:19;9.30;99.90
51739;DHT22;37815;52.692;6.226;2023-02-03T19:53:19;9.30;99.90
51739;DHT22;37815;52.692;6.226;2023-02-03T19:58:21;9.30;99.90
51739;DHT22;37815;52.692;6.226;2023-02-03T20:03:23;9.30;99.90
51739;DHT22;37815;52.692;6.226;2023-02-03T20:08:24;9.30;99.90
51739;DHT22;37815;52.692;6.226;2023-02-03T20:13:24;9.30;99.90
51739;DHT22;37815;52.692;6.226;2023-02-03T20:18:25;9.30;99.90
51739;DHT22;37815;52.692;6.226;2023-02-03T20:23:26;9.30;99.90
51739;DHT22;37815;52.692;6.226;2023-02-03T20:28:27;9.30;99.90
51739;DHT22;37815;52.692;6.226;2023-02-03T20:33:29;9.30;99.90
51739;DHT22;37815;52.692;6.226;2023-02-03T20:38:30;9.30;99.90
51739;DHT22;37815;52.692;6.226;2023-02-03T20:43:30;9.30;99.90
51739;DHT22;37815;52.692;6.226;2023-02-03T20:48:31;9.30;99.90
51739;DHT22;37815;52.692;6.226;2023-02-03T20:53:32;9.30;99.90
51739;DHT22;37815;52.692;6.226;2023-02-03T20:58:34;9.30;99.90
51739;DHT22;37815;52.692;6.226;2023-02-03T21:03:35;9.30;99.90
51739;DHT22;37815;52.692;6.226;2023-02-03T21:08:54;9.30;99.90
51739;DHT22;37815;52.692;6.226;2023-02-03T21:13:57;9.30;99.90
51739;DHT22;37815;52.692;6.226;2023-02-03T21:18:58;9.30;99.90
51739;DHT22;37815;52.692;6.226;2023-02-03T21:24:22;9.30;99.90
51739;DHT22;37815;52.692;6.226;2023-02-03T21:29:25;9.30;99.90
51739;DHT22;37815;52.692;6.226;2023-02-03T21:34:29;9.30;99.90
51739;DHT22;37815;52.692;6.226;2023-02-03T21:39:33;9.30;99.90
51739;DHT22;37815;52.692;6.226;2023-02-03T21:44:34;9.30;99.90
51739;DHT22;37815;52.692;6.226;2023-02-03T21:49:35;9.30;99.90
51739;DHT22;37815;52.692;6.226;2023-02-03T21:54:39;9.20;99.90
51739;DHT22;37815;52.692;6.226;2023-02-03T21:59:42;9.20;99.90
51739;DHT22;37815;52.692;6.226;2023-02-03T22:04:46;9.20;99.90
51739;DHT22;37815;52.692;6.226;2023-02-03T22:09:46;9.20;99.90
51739;DHT22;37815;52.692;6.226;2023-02-03T22:14:49;9.20;99.90
51739;DHT22;37815;52.692;6.226;2023-02-03T22:19:50;9.20;99.90
51739;DHT22;37815;52.692;6.226;2023-02-03T22:24:50;9.20;99.90
51739;DHT22;37815;52.692;6.226;2023-02-03T22:29:51;9.20;99.90
51739;DHT22;37815;52.692;6.226;2023-02-03T22:34:55;9.20;99.90
51739;DHT22;37815;52.692;6.226;2023-02-03T22:39:56;9.20;99.90
51739;DHT22;37815;52.692;6.226;2023-02-03T22:44:57;9.20;99.90
51739;DHT22;37815;52.692;6.226;2023-02-03T22:49:58;9.20;99.90
51739;DHT22;37815;52.692;6.226;2023-02-03T22:54:59;9.60;99.90
51739;DHT22;37815;52.692;6.226;2023-02-03T23:00:00;9.20;99.90
51739;DHT22;37815;52.692;6.226;2023-02-03T23:05:01;9.20;99.90
51739;DHT22;37815;52.692;6.226;2023-02-03T23:10:06;9.10;99.90
51739;DHT22;37815;52.692;6.226;2023-02-03T23:15:07;9.10;99.90
51739;DHT22;37815;52.692;6.226;2023-02-03T23:20:09;9.10;99.90
51739;DHT22;37815;52.692;6.226;2023-02-03T23:25:11;9.10;99.90
51739;DHT22;37815;52.692;6.226;2023-02-03T23:30:13;9.10;99.90
51739;DHT22;37815;52.692;6.226;2023-02-03T23:35:14;9.10;99.90
51739;DHT22;37815;52.692;6.226;2023-02-03T23:40:33;9.10;99.90
51739;DHT22;37815;52.692;6.226;2023-02-03T23:45:33;9.10;99.90
51739;DHT22;37815;52.692;6.226;2023-02-03T23:50:34;9.10;99.90
51739;DHT22;37815;52.692;6.226;2023-02-03T23:55:35;9.10;99.90
